createdAt,value
2023-02-21T00:00:00.165Z,88.32
2023-02-21T00:02:45.275Z,89.00
2023-02-21T00:05:30.004Z,88.96
2023-02-21T00:08:15.210Z,88.20
2023-02-21T00:10:59.971Z,88.93
2023-02-21T00:13:44.845Z,89.15
2023-02-21T00:16:34.721Z,89.33
2023-02-21T00:19:19.506Z,89.09
2023-02-21T00:22:04.210Z,88.54
2023-02-21T00:24:48.915Z,88.74
2023-02-21T00:27:33.714Z,89.27
2023-02-21T00:30:18.412Z,89.12
2023-02-21T00:33:06.019Z,88.63
2023-02-21T00:35:52.110Z,89.10
2023-02-21T00:38:36.840Z,88.63
2023-02-21T00:41:21.988Z,89.22
2023-02-21T00:44:07.672Z,88.89
2023-02-21T00:46:52.626Z,89.28
2023-02-21T00:49:37.571Z,89.37
2023-02-21T00:52:22.531Z,89.24
2023-02-21T00:55:07.330Z,89.33
2023-02-21T00:57:52.187Z,89.18
2023-02-21T01:00:41.907Z,89.34
2023-02-21T01:03:28.207Z,89.07
2023-02-21T01:06:15.399Z,89.38
2023-02-21T01:09:04.316Z,89.79
2023-02-21T01:11:50.847Z,89.09
2023-02-21T01:14:35.917Z,89.19
2023-02-21T01:17:20.853Z,89.37
2023-02-21T01:20:05.599Z,89.89
2023-02-21T01:22:52.428Z,89.38
2023-02-21T01:25:38.760Z,89.33
2023-02-21T01:28:23.684Z,89.46
2023-02-21T01:31:08.457Z,89.23
2023-02-21T01:33:58.688Z,89.79
2023-02-21T01:36:44.132Z,89.50
2023-02-21T01:39:29.817Z,89.69
2023-02-21T01:42:15.025Z,89.66
2023-02-21T01:45:04.695Z,89.73
2023-02-21T01:47:51.022Z,89.82
2023-02-21T01:50:43.777Z,89.82
2023-02-21T01:53:34.610Z,90.10
2023-02-21T01:56:20.678Z,89.82
2023-02-21T01:59:08.588Z,90.65
2023-02-21T02:02:04.715Z,90.41
2023-02-21T02:04:52.032Z,90.59
2023-02-21T02:07:37.960Z,90.79
2023-02-21T02:10:24.914Z,90.57
2023-02-21T02:13:12.837Z,90.58
2023-02-21T02:16:02.720Z,90.94
2023-02-21T02:18:37.922Z,90.83
2023-02-21T02:21:42.390Z,90.15
2023-02-21T02:24:22.109Z,90.13
2023-02-21T02:27:06.760Z,90.86
2023-02-21T02:30:04.148Z,91.13
2023-02-21T02:33:08.988Z,91.15
2023-02-21T02:35:41.851Z,91.26
2023-02-21T02:38:24.404Z,90.82
2023-02-21T02:41:03.809Z,90.91
2023-02-21T02:43:38.587Z,90.98
2023-02-21T02:46:10.732Z,91.06
2023-02-21T02:48:43.668Z,90.91
2023-02-21T02:51:14.795Z,91.48
2023-02-21T02:53:43.054Z,91.77
2023-02-21T02:56:14.862Z,91.57
2023-02-21T02:58:49.208Z,91.66
2023-02-21T03:01:54.777Z,91.19
2023-02-21T03:04:48.999Z,90.97
2023-02-21T03:07:47.810Z,91.38
2023-02-21T03:10:28.006Z,91.40
2023-02-21T03:13:16.323Z,91.52
2023-02-21T03:15:54.925Z,91.28
2023-02-21T03:18:32.628Z,91.18
2023-02-21T03:21:01.509Z,90.96
2023-02-21T03:23:30.948Z,91.16
2023-02-21T03:26:01.244Z,91.30
2023-02-21T03:28:29.813Z,91.05
2023-02-21T03:30:58.721Z,90.56
2023-02-21T03:33:25.457Z,90.48
2023-02-21T03:35:53.126Z,91.23
2023-02-21T03:38:19.506Z,90.64
2023-02-21T03:40:45.857Z,90.53
2023-02-21T03:43:12.368Z,90.38
2023-02-21T03:45:49.552Z,90.36
2023-02-21T03:48:30.932Z,90.72
2023-02-21T03:51:01.677Z,90.21
2023-02-21T03:53:33.736Z,90.27
2023-02-21T03:56:01.895Z,90.55
2023-02-21T03:58:38.419Z,90.72
2023-02-21T04:01:05.775Z,90.21
2023-02-21T04:03:32.725Z,90.70
2023-02-21T04:06:03.998Z,90.83
2023-02-21T04:08:30.922Z,90.49
2023-02-21T04:10:57.288Z,91.00
2023-02-21T04:13:27.706Z,90.70
2023-02-21T04:15:55.474Z,90.71
2023-02-21T04:18:21.989Z,91.00
2023-02-21T04:20:50.723Z,90.55
2023-02-21T04:23:19.890Z,90.78
2023-02-21T04:25:46.837Z,90.98
2023-02-21T04:28:18.213Z,91.19
2023-02-21T04:30:44.598Z,91.01
2023-02-21T04:33:11.413Z,91.27
2023-02-21T04:35:37.809Z,90.95
2023-02-21T04:38:12.323Z,91.13
2023-02-21T04:40:38.674Z,91.84
2023-02-21T04:43:05.025Z,91.17
2023-02-21T04:45:31.449Z,91.88
2023-02-21T04:47:57.842Z,91.33
2023-02-21T04:50:24.181Z,91.79
2023-02-21T04:52:50.572Z,91.64
2023-02-21T04:55:16.983Z,91.68
2023-02-21T04:57:43.354Z,91.23
2023-02-21T05:00:11.197Z,91.66
2023-02-21T05:02:37.527Z,91.29
2023-02-21T05:05:03.951Z,91.56
2023-02-21T05:07:30.328Z,91.66
2023-02-21T05:09:56.655Z,91.07
2023-02-21T05:12:23.063Z,91.37
2023-02-21T05:14:50.210Z,91.90
2023-02-21T05:17:16.610Z,91.94
2023-02-21T05:19:43.052Z,91.57
2023-02-21T05:22:09.516Z,91.59
2023-02-21T05:24:42.420Z,91.47
2023-02-21T05:27:11.360Z,91.67
2023-02-21T05:29:37.937Z,91.00
2023-02-21T05:32:04.336Z,91.55
2023-02-21T05:34:30.792Z,91.54
2023-02-21T05:36:57.170Z,91.76
2023-02-21T05:39:23.586Z,91.62
2023-02-21T05:41:51.087Z,91.78
2023-02-21T05:44:18.169Z,91.96
2023-02-21T05:46:45.877Z,91.70
2023-02-21T05:49:12.342Z,91.71
2023-02-21T05:51:41.931Z,91.90
2023-02-21T05:54:09.915Z,91.38
2023-02-21T05:56:41.168Z,91.59
2023-02-21T05:59:08.712Z,91.27
2023-02-21T06:01:35.469Z,91.79
2023-02-21T06:04:01.893Z,91.97
2023-02-21T06:06:28.285Z,91.90
2023-02-21T06:08:54.684Z,92.18
2023-02-21T06:11:28.035Z,92.45
2023-02-21T06:13:56.668Z,92.34
2023-02-21T06:16:23.865Z,91.90
2023-02-21T06:18:55.347Z,92.04
2023-02-21T06:21:21.850Z,91.93
2023-02-21T06:23:48.326Z,92.17
2023-02-21T06:26:15.306Z,92.42
2023-02-21T06:28:41.693Z,92.52
2023-02-21T06:31:08.261Z,92.35
2023-02-21T06:33:34.787Z,92.80
2023-02-21T06:36:10.714Z,92.20
2023-02-21T06:38:37.161Z,92.86
2023-02-21T06:41:08.064Z,92.43
2023-02-21T06:43:36.486Z,92.32
2023-02-21T06:46:04.486Z,92.96
2023-02-21T06:48:31.197Z,92.69
2023-02-21T06:50:57.640Z,93.10
2023-02-21T06:53:23.978Z,93.34
2023-02-21T06:55:50.349Z,93.31
2023-02-21T06:58:16.732Z,93.41
2023-02-21T07:00:43.086Z,93.48
2023-02-21T07:03:09.413Z,93.27
2023-02-21T07:05:37.598Z,93.63
2023-02-21T07:08:04.430Z,93.38
2023-02-21T07:10:31.179Z,93.60
2023-02-21T07:12:57.555Z,93.54
2023-02-21T07:15:23.879Z,93.64
2023-02-21T07:17:50.327Z,93.08
2023-02-21T07:20:16.827Z,93.15
2023-02-21T07:22:43.189Z,93.10
2023-02-21T07:25:15.534Z,93.32
2023-02-21T07:27:41.914Z,92.86
2023-02-21T07:30:09.437Z,93.08
2023-02-21T07:32:35.807Z,93.05
2023-02-21T07:35:02.249Z,93.37
2023-02-21T07:37:28.566Z,93.50
2023-02-21T07:39:54.903Z,93.26
2023-02-21T07:42:21.210Z,93.48
2023-02-21T07:44:47.838Z,93.17
2023-02-21T07:47:14.210Z,93.37
2023-02-21T07:49:41.412Z,93.39
2023-02-21T07:52:07.804Z,93.44
2023-02-21T07:54:34.119Z,93.32
2023-02-21T07:57:00.443Z,93.44
2023-02-21T07:59:26.805Z,93.38
2023-02-21T08:01:53.464Z,93.26
2023-02-21T08:04:21.161Z,93.19
2023-02-21T08:06:49.208Z,93.34
2023-02-21T08:09:16.227Z,93.49
2023-02-21T08:11:42.560Z,93.35
2023-02-21T08:14:08.928Z,93.73
2023-02-21T08:16:35.341Z,93.49
2023-02-21T08:19:01.726Z,93.76
2023-02-21T08:21:28.068Z,93.34
2023-02-21T08:23:55.328Z,93.92
2023-02-21T08:26:22.626Z,93.67
2023-02-21T08:28:48.978Z,94.26
2023-02-21T08:31:15.682Z,93.68
2023-02-21T08:33:42.193Z,94.20
2023-02-21T08:36:08.578Z,94.21
2023-02-21T08:38:34.912Z,94.08
2023-02-21T08:41:02.771Z,94.04
2023-02-21T08:43:29.203Z,94.67
2023-02-21T08:45:55.533Z,94.80
2023-02-21T08:48:21.855Z,95.01
2023-02-21T08:50:48.276Z,94.39
2023-02-21T08:53:15.556Z,95.07
2023-02-21T08:55:42.980Z,95.04
2023-02-21T08:58:10.809Z,95.17
2023-02-21T09:00:37.204Z,94.98
2023-02-21T09:03:03.713Z,95.08
2023-02-21T09:05:31.711Z,95.30
2023-02-21T09:08:01.259Z,95.54
2023-02-21T09:10:35.837Z,95.13
2023-02-21T09:13:03.655Z,95.29
2023-02-21T09:15:30.138Z,95.21
2023-02-21T09:17:56.754Z,94.94
2023-02-21T09:20:25.429Z,95.36
2023-02-21T09:22:52.297Z,94.98
2023-02-21T09:25:24.363Z,95.29
2023-02-21T09:27:53.342Z,95.33
2023-02-21T09:30:25.957Z,95.63
2023-02-21T09:32:52.511Z,95.10
2023-02-21T09:35:19.086Z,95.43
2023-02-21T09:37:46.607Z,95.16
2023-02-21T09:40:29.226Z,95.46
2023-02-21T09:42:58.622Z,94.99
2023-02-21T09:45:29.546Z,95.24
2023-02-21T09:47:59.296Z,94.76
2023-02-21T09:50:31.073Z,94.86
2023-02-21T09:52:58.686Z,94.34
2023-02-21T09:55:35.336Z,94.48
2023-02-21T09:58:02.749Z,94.09
2023-02-21T10:00:37.984Z,94.25
2023-02-21T10:03:19.286Z,94.44
2023-02-21T10:05:51.027Z,94.38
2023-02-21T10:08:59.380Z,93.92
2023-02-21T10:11:31.246Z,94.53
2023-02-21T10:14:22.192Z,94.02
2023-02-21T10:16:59.551Z,94.13
2023-02-21T10:19:32.432Z,94.22
2023-02-21T10:22:00.887Z,94.19
2023-02-21T10:24:28.710Z,93.71
2023-02-21T10:27:05.570Z,94.09
2023-02-21T10:29:47.224Z,93.95
2023-02-21T10:32:14.334Z,94.16
2023-02-21T10:34:46.300Z,93.91
2023-02-21T10:37:35.942Z,93.41
2023-02-21T10:40:22.178Z,93.72
2023-02-21T10:42:56.480Z,93.58
2023-02-21T10:45:32.655Z,93.62
2023-02-21T10:48:06.382Z,92.76
2023-02-21T10:50:59.323Z,93.37
2023-02-21T10:53:40.315Z,92.82
2023-02-21T10:56:16.403Z,92.93
2023-02-21T10:58:50.090Z,93.22
2023-02-21T11:01:37.683Z,93.06
2023-02-21T11:04:24.296Z,93.35
2023-02-21T11:07:05.310Z,93.29
2023-02-21T11:09:34.874Z,93.11
2023-02-21T11:12:03.903Z,92.96
2023-02-21T11:14:31.488Z,92.71
2023-02-21T11:17:07.176Z,93.02
2023-02-21T11:19:52.663Z,92.77
2023-02-21T11:22:48.957Z,92.49
2023-02-21T11:25:25.934Z,92.42
2023-02-21T11:28:16.652Z,92.63
2023-02-21T11:31:01.316Z,92.03
2023-02-21T11:33:29.056Z,92.28
2023-02-21T11:36:16.956Z,92.37
2023-02-21T11:38:47.084Z,91.91
2023-02-21T11:41:28.298Z,91.83
2023-02-21T11:43:55.723Z,91.21
2023-02-21T11:46:33.005Z,90.68
2023-02-21T11:49:22.884Z,91.10
2023-02-21T11:51:58.594Z,91.41
2023-02-21T11:54:28.233Z,91.43
2023-02-21T11:57:04.392Z,90.57
2023-02-21T12:00:09.200Z,90.45
2023-02-21T12:02:57.727Z,90.81
2023-02-21T12:05:40.087Z,90.28
2023-02-21T12:08:36.454Z,90.76
2023-02-21T12:11:11.647Z,90.54
2023-02-21T12:13:49.757Z,90.58
2023-02-21T12:16:30.982Z,90.53
2023-02-21T12:19:34.897Z,90.26
2023-02-21T12:22:19.533Z,89.87
2023-02-21T12:25:08.813Z,90.35
2023-02-21T12:27:55.866Z,90.23
2023-02-21T12:30:40.474Z,89.52
2023-02-21T12:33:51.044Z,89.42
2023-02-21T12:36:38.879Z,88.57
2023-02-21T12:39:28.794Z,88.16
2023-02-21T12:42:16.684Z,88.29
2023-02-21T12:45:13.947Z,88.69
2023-02-21T12:47:56.451Z,88.07
2023-02-21T12:50:27.297Z,87.54
2023-02-21T12:53:12.677Z,87.64
2023-02-21T12:55:54.006Z,87.72
2023-02-21T12:58:32.427Z,87.52
2023-02-21T13:01:06.738Z,87.58
2023-02-21T13:03:42.342Z,87.69
2023-02-21T13:06:33.784Z,87.07
2023-02-21T13:09:05.923Z,86.51
2023-02-21T13:12:01.027Z,86.51
2023-02-21T13:14:33.841Z,86.38
2023-02-21T13:17:00.304Z,86.74
2023-02-21T13:19:42.011Z,86.75
2023-02-21T13:22:41.936Z,86.13
2023-02-21T13:25:39.394Z,85.96
2023-02-21T13:28:17.357Z,86.13
2023-02-21T13:30:51.815Z,86.06
2023-02-21T13:33:28.259Z,86.00
2023-02-21T13:35:58.646Z,85.93
2023-02-21T13:38:27.574Z,86.16
2023-02-21T13:41:05.844Z,86.24
2023-02-21T13:43:36.578Z,85.84
2023-02-21T13:46:45.176Z,86.18
2023-02-21T13:49:42.577Z,85.88
2023-02-21T13:52:24.205Z,86.27
2023-02-21T13:55:15.566Z,86.33
2023-02-21T13:57:43.516Z,86.22
2023-02-21T14:00:24.975Z,86.12
2023-02-21T14:03:12.473Z,85.83
2023-02-21T14:05:53.698Z,86.38
2023-02-21T14:08:58.539Z,85.99
2023-02-21T14:11:28.683Z,85.72
2023-02-21T14:13:58.497Z,86.05
2023-02-21T14:16:32.582Z,85.62
2023-02-21T14:19:27.175Z,85.91
2023-02-21T14:21:59.773Z,86.08
2023-02-21T14:24:29.307Z,85.30
2023-02-21T14:27:01.579Z,85.73
2023-02-21T14:29:32.654Z,85.98
2023-02-21T14:32:02.323Z,85.38
2023-02-21T14:34:46.802Z,85.57
2023-02-21T14:37:21.747Z,85.94
2023-02-21T14:40:14.071Z,86.31
2023-02-21T14:43:04.849Z,85.99
2023-02-21T14:45:44.603Z,86.07
2023-02-21T14:48:39.213Z,86.05
2023-02-21T14:51:18.008Z,86.15
2023-02-21T14:54:00.407Z,86.28
2023-02-21T14:56:35.783Z,85.49
2023-02-21T14:59:20.193Z,85.37
2023-02-21T15:02:28.228Z,85.55
2023-02-21T15:05:04.739Z,85.80
2023-02-21T15:07:48.531Z,85.85
2023-02-21T15:10:21.893Z,85.50
2023-02-21T15:12:58.868Z,85.71
2023-02-21T15:15:30.065Z,86.23
2023-02-21T15:18:03.247Z,85.89
2023-02-21T15:20:30.788Z,86.00
2023-02-21T15:23:01.616Z,85.72
2023-02-21T15:25:28.111Z,85.29
2023-02-21T15:27:57.767Z,85.67
2023-02-21T15:30:34.834Z,85.92
2023-02-21T15:33:20.116Z,85.39
2023-02-21T15:35:51.431Z,85.38
2023-02-21T15:38:26.643Z,85.24
2023-02-21T15:40:56.656Z,84.85
2023-02-21T15:43:46.167Z,85.44
2023-02-21T15:46:19.393Z,85.42
2023-02-21T15:48:47.429Z,85.64
2023-02-21T15:51:14.781Z,85.89
2023-02-21T15:53:41.356Z,85.76
2023-02-21T15:56:25.576Z,85.35
2023-02-21T15:59:10.788Z,85.69
2023-02-21T16:01:37.561Z,85.49
2023-02-21T16:04:21.451Z,85.27
2023-02-21T16:06:54.308Z,85.32
2023-02-21T16:09:27.864Z,85.68
2023-02-21T16:12:01.873Z,85.68
2023-02-21T16:14:56.144Z,85.35
2023-02-21T16:17:41.032Z,85.98
2023-02-21T16:20:20.582Z,85.59
2023-02-21T16:23:08.249Z,85.39
2023-02-21T16:25:35.117Z,85.41
2023-02-21T16:28:02.058Z,85.58
2023-02-21T16:30:30.835Z,85.73
2023-02-21T16:33:03.673Z,85.42
2023-02-21T16:35:32.002Z,85.71
2023-02-21T16:38:00.234Z,85.89
2023-02-21T16:40:33.255Z,86.05
2023-02-21T16:43:01.922Z,86.27
2023-02-21T16:45:29.952Z,86.01
2023-02-21T16:47:59.018Z,86.19
2023-02-21T16:50:31.006Z,86.51
2023-02-21T16:52:58.057Z,85.84
2023-02-21T16:55:24.527Z,86.17
2023-02-21T16:57:54.092Z,86.10
2023-02-21T17:00:21.941Z,85.74
2023-02-21T17:02:49.507Z,86.39
2023-02-21T17:05:16.576Z,85.97
2023-02-21T17:07:43.295Z,86.32
2023-02-21T17:10:11.226Z,86.20
2023-02-21T17:12:37.580Z,85.98
2023-02-21T17:15:05.026Z,86.17
2023-02-21T17:17:31.479Z,86.32
2023-02-21T17:19:57.862Z,86.10
2023-02-21T17:22:24.220Z,86.20
2023-02-21T17:24:50.642Z,85.89
2023-02-21T17:27:16.984Z,86.48
2023-02-21T17:29:43.332Z,86.39
2023-02-21T17:32:09.756Z,86.16
2023-02-21T17:34:37.246Z,86.08
2023-02-21T17:37:04.436Z,85.61
2023-02-21T17:39:31.189Z,85.91
2023-02-21T17:41:57.571Z,85.86
2023-02-21T17:44:26.481Z,86.15
2023-02-21T17:46:56.066Z,86.44
2023-02-21T17:49:25.068Z,86.16
2023-02-21T17:51:52.414Z,86.54
2023-02-21T17:54:22.258Z,86.35
2023-02-21T17:56:49.165Z,85.85
2023-02-21T17:59:16.265Z,86.42
2023-02-21T18:01:42.842Z,86.70
2023-02-21T18:04:09.835Z,86.23
2023-02-21T18:06:36.551Z,86.40
2023-02-21T18:09:05.700Z,86.35
2023-02-21T18:11:32.034Z,86.22
2023-02-21T18:13:58.573Z,86.49
2023-02-21T18:16:24.984Z,85.95
2023-02-21T18:18:51.408Z,86.34
2023-02-21T18:21:18.870Z,86.32
2023-02-21T18:23:46.424Z,86.27
2023-02-21T18:26:13.350Z,86.55
2023-02-21T18:28:40.194Z,86.59
2023-02-21T18:31:07.575Z,86.12
2023-02-21T18:33:34.784Z,86.52
2023-02-21T18:36:01.153Z,86.61
2023-02-21T18:38:28.092Z,86.17
2023-02-21T18:40:54.601Z,86.55
2023-02-21T18:43:26.908Z,86.58
2023-02-21T18:45:54.811Z,86.71
2023-02-21T18:48:22.825Z,86.33
2023-02-21T18:50:49.868Z,86.66
2023-02-21T18:53:17.187Z,86.15
2023-02-21T18:55:43.779Z,85.97
2023-02-21T18:58:11.102Z,86.25
2023-02-21T19:00:39.441Z,86.60
2023-02-21T19:03:08.255Z,86.27
2023-02-21T19:05:35.253Z,86.62
2023-02-21T19:08:01.663Z,86.53
2023-02-21T19:10:29.047Z,86.47
2023-02-21T19:12:59.080Z,86.62
2023-02-21T19:15:26.429Z,86.32
2023-02-21T19:17:52.759Z,86.78
2023-02-21T19:20:19.663Z,86.73
2023-02-21T19:22:46.456Z,86.86
2023-02-21T19:25:14.483Z,86.92
2023-02-21T19:27:42.726Z,86.47
2023-02-21T19:30:10.292Z,87.17
2023-02-21T19:32:37.354Z,86.93
2023-02-21T19:35:08.050Z,86.81
2023-02-21T19:37:35.886Z,86.71
2023-02-21T19:40:03.558Z,87.25
2023-02-21T19:42:29.898Z,87.23
2023-02-21T19:44:56.216Z,86.88
2023-02-21T19:47:22.557Z,86.96
2023-02-21T19:49:48.883Z,87.33
2023-02-21T19:52:15.234Z,87.42
2023-02-21T19:54:41.610Z,87.21
2023-02-21T19:57:07.939Z,87.17
2023-02-21T19:59:35.246Z,87.58
2023-02-21T20:02:03.382Z,87.40
2023-02-21T20:04:30.425Z,87.45
2023-02-21T20:06:58.041Z,87.36
2023-02-21T20:09:24.715Z,87.63
2023-02-21T20:11:51.055Z,87.60
2023-02-21T20:14:17.715Z,87.45
2023-02-21T20:16:44.711Z,87.32
2023-02-21T20:19:12.274Z,87.62
2023-02-21T20:21:39.428Z,87.22
2023-02-21T20:24:10.160Z,87.14
2023-02-21T20:26:37.107Z,87.30
2023-02-21T20:29:04.135Z,87.21
2023-02-21T20:31:32.766Z,87.55
2023-02-21T20:34:03.336Z,87.10
2023-02-21T20:36:33.181Z,87.49
2023-02-21T20:38:59.775Z,87.37
2023-02-21T20:41:33.327Z,86.98
2023-02-21T20:43:59.714Z,87.15
2023-02-21T20:46:26.917Z,87.30
2023-02-21T20:48:53.304Z,87.18
2023-02-21T20:51:30.925Z,87.04
2023-02-21T20:54:00.105Z,87.14
2023-02-21T20:56:39.366Z,86.91
2023-02-21T20:59:07.985Z,86.67
2023-02-21T21:01:37.776Z,86.78
2023-02-21T21:04:07.955Z,86.62
2023-02-21T21:06:36.586Z,86.95
2023-02-21T21:09:03.273Z,86.60
2023-02-21T21:11:30.360Z,86.81
2023-02-21T21:13:56.702Z,86.67
2023-02-21T21:16:23.109Z,86.65
2023-02-21T21:18:49.457Z,86.58
2023-02-21T21:21:16.151Z,86.82
2023-02-21T21:23:42.933Z,86.96
2023-02-21T21:26:09.511Z,87.39
2023-02-21T21:28:36.209Z,86.94
2023-02-21T21:31:03.382Z,86.90
2023-02-21T21:33:29.824Z,87.39
2023-02-21T21:35:58.343Z,86.94
2023-02-21T21:38:26.620Z,86.52
2023-02-21T21:40:56.773Z,86.09
2023-02-21T21:43:24.532Z,86.28
2023-02-21T21:45:51.299Z,86.32
2023-02-21T21:48:18.478Z,86.06
2023-02-21T21:50:45.087Z,86.21
2023-02-21T21:53:11.757Z,86.07
2023-02-21T21:55:38.718Z,86.13
2023-02-21T21:58:13.640Z,85.80
2023-02-21T22:00:41.917Z,86.07
2023-02-21T22:03:13.984Z,85.95
2023-02-21T22:05:44.509Z,85.51
2023-02-21T22:08:16.384Z,85.74
2023-02-21T22:10:44.897Z,85.72
2023-02-21T22:13:14.692Z,85.94
2023-02-21T22:15:43.966Z,85.84
2023-02-21T22:18:11.757Z,85.17
2023-02-21T22:20:38.237Z,85.05
2023-02-21T22:23:06.327Z,85.27
2023-02-21T22:25:36.691Z,85.72
2023-02-21T22:28:09.305Z,85.10
2023-02-21T22:30:39.824Z,85.73
2023-02-21T22:33:08.050Z,85.16
2023-02-21T22:35:34.642Z,85.55
2023-02-21T22:38:05.099Z,85.75
2023-02-21T22:40:35.316Z,85.84
2023-02-21T22:43:08.780Z,85.91
2023-02-21T22:45:36.300Z,85.47
2023-02-21T22:48:05.779Z,85.74
2023-02-21T22:50:37.319Z,85.52
2023-02-21T22:53:08.171Z,85.51
2023-02-21T22:55:36.864Z,85.56
2023-02-21T22:58:06.347Z,85.48
2023-02-21T23:00:34.367Z,85.10
2023-02-21T23:03:12.517Z,85.86
2023-02-21T23:05:43.911Z,85.67
2023-02-21T23:08:12.755Z,86.18
2023-02-21T23:10:40.231Z,86.04
2023-02-21T23:13:10.044Z,86.00
2023-02-21T23:15:36.878Z,86.24
2023-02-21T23:18:04.388Z,86.45
2023-02-21T23:20:30.855Z,86.38
2023-02-21T23:22:58.792Z,86.99
2023-02-21T23:25:35.037Z,86.87
2023-02-21T23:28:12.033Z,86.58
2023-02-21T23:30:42.697Z,86.68
2023-02-21T23:33:15.694Z,86.69
2023-02-21T23:35:49.126Z,86.88
2023-02-21T23:38:16.718Z,87.04
2023-02-21T23:40:48.013Z,86.70
2023-02-21T23:43:16.707Z,87.26
2023-02-21T23:45:43.784Z,86.81
2023-02-21T23:48:15.550Z,87.12
2023-02-21T23:50:46.908Z,86.82
2023-02-21T23:53:16.850Z,86.86
2023-02-21T23:55:46.324Z,86.88
2023-02-21T23:58:16.115Z,87.03
